createdAt,value
2022-09-03T00:02:40.335Z,3.22
2022-09-03T00:05:55.932Z,3.10
2022-09-03T00:09:08.485Z,3.10
2022-09-03T00:12:37.134Z,3.10
2022-09-03T00:15:40.575Z,2.20
2022-09-03T00:18:48.829Z,2.72
2022-09-03T00:22:07.558Z,2.45
2022-09-03T00:25:15.156Z,3.15
2022-09-03T00:28:24.580Z,3.07
2022-09-03T00:31:38.523Z,3.38
2022-09-03T00:34:45.540Z,3.35
2022-09-03T00:37:49.186Z,3.35
2022-09-03T00:40:54.870Z,3.08
2022-09-03T00:44:06.168Z,3.00
2022-09-03T00:47:13.843Z,3.22
2022-09-03T00:50:31.075Z,3.28
2022-09-03T00:53:56.248Z,3.20
2022-09-03T00:57:15.921Z,3.75
2022-09-03T01:00:19.972Z,3.03
2022-09-03T01:03:55.804Z,3.03
2022-09-03T01:07:14.412Z,2.85
2022-09-03T01:10:49.675Z,2.83
2022-09-03T01:14:02.758Z,3.08
2022-09-03T01:17:21.551Z,3.45
2022-09-03T01:20:29.946Z,2.47
2022-09-03T01:23:54.995Z,3.58
2022-09-03T01:27:40.398Z,2.65
2022-09-03T01:30:51.512Z,3.47
2022-09-03T01:34:01.854Z,2.45
2022-09-03T01:37:32.884Z,3.22
2022-09-03T01:41:20.984Z,3.25
2022-09-03T01:44:53.909Z,2.78
2022-09-03T01:48:04.041Z,3.28
2022-09-03T01:51:12.322Z,3.42
2022-09-03T01:54:27.653Z,2.72
2022-09-03T01:57:56.305Z,2.83
2022-09-03T02:01:11.236Z,2.83
2022-09-03T02:04:23.526Z,2.45
2022-09-03T02:07:33.720Z,2.85
2022-09-03T02:10:44.298Z,3.25
2022-09-03T02:13:53.082Z,3.15
2022-09-03T02:17:00.701Z,2.90
2022-09-03T02:20:12.017Z,3.38
2022-09-03T02:23:15.552Z,3.13
2022-09-03T02:26:22.510Z,3.03
2022-09-03T02:29:25.325Z,3.15
2022-09-03T02:32:29.113Z,3.35
2022-09-03T02:35:31.283Z,3.10
2022-09-03T02:38:34.093Z,3.00
2022-09-03T02:41:36.145Z,3.35
2022-09-03T02:44:42.836Z,3.17
2022-09-03T02:47:48.150Z,2.88
2022-09-03T02:50:50.466Z,3.13
2022-09-03T02:53:52.628Z,2.78
2022-09-03T02:56:54.806Z,3.60
2022-09-03T02:59:56.899Z,3.80
2022-09-03T03:02:59.419Z,2.55
2022-09-03T03:06:03.888Z,2.85
2022-09-03T03:09:06.037Z,3.45
2022-09-03T03:12:10.457Z,2.90
2022-09-03T03:15:12.591Z,2.78
2022-09-03T03:18:15.436Z,2.65
2022-09-03T03:21:19.052Z,2.47
2022-09-03T03:24:21.194Z,2.42
2022-09-03T03:27:24.155Z,2.97
2022-09-03T03:30:26.595Z,3.03
2022-09-03T03:33:28.729Z,2.78
2022-09-03T03:36:33.548Z,2.85
2022-09-03T03:39:35.757Z,3.05
2022-09-03T03:42:38.179Z,2.60
2022-09-03T03:45:40.206Z,2.80
2022-09-03T03:48:42.175Z,2.30
2022-09-03T03:51:44.530Z,2.95
2022-09-03T03:54:46.595Z,2.67
2022-09-03T03:57:48.821Z,2.78
2022-09-03T04:00:53.697Z,3.25
2022-09-03T04:03:56.706Z,2.28
2022-09-03T04:06:59.279Z,2.90
2022-09-03T04:10:10.744Z,2.88
2022-09-03T04:13:12.980Z,2.50
2022-09-03T04:16:21.313Z,2.60
2022-09-03T04:19:24.377Z,2.55
2022-09-03T04:22:29.782Z,2.83
2022-09-03T04:25:32.200Z,2.40
2022-09-03T04:28:35.091Z,2.30
2022-09-03T04:31:38.928Z,1.75
2022-09-03T04:34:42.302Z,2.08
2022-09-03T04:37:44.410Z,2.00
2022-09-03T04:40:52.823Z,1.52
2022-09-03T04:46:58.752Z,1.60
2022-09-03T04:50:00.885Z,2.80
2022-09-03T04:53:07.985Z,1.60
2022-09-03T04:56:19.513Z,1.90
2022-09-03T04:59:21.882Z,2.35
2022-09-03T05:02:24.096Z,1.73
2022-09-03T05:05:26.206Z,2.50
2022-09-03T05:08:28.446Z,1.83
2022-09-03T05:11:30.757Z,1.85
2022-09-03T05:14:32.928Z,1.92
2022-09-03T05:17:37.671Z,1.80
2022-09-03T05:20:39.976Z,1.90
2022-09-03T05:23:44.911Z,1.83
2022-09-03T05:26:47.173Z,1.55
2022-09-03T05:29:50.127Z,1.75
2022-09-03T05:32:52.465Z,1.80
2022-09-03T05:36:00.858Z,1.70
2022-09-03T05:42:05.447Z,1.90
2022-09-03T05:45:11.379Z,1.95
2022-09-03T05:48:14.476Z,1.58
2022-09-03T05:51:18.471Z,2.47
2022-09-03T05:54:20.546Z,1.30
2022-09-03T05:57:22.568Z,1.70
2022-09-03T06:00:24.784Z,1.35
2022-09-03T06:03:27.253Z,1.45
2022-09-03T06:06:32.784Z,2.13
2022-09-03T06:09:34.864Z,1.48
2022-09-03T06:12:37.240Z,1.70
2022-09-03T06:15:39.679Z,1.60
2022-09-03T06:18:41.962Z,1.88
2022-09-03T06:21:45.811Z,1.33
2022-09-03T06:24:48.116Z,1.60
2022-09-03T06:27:50.875Z,1.90
2022-09-03T06:30:53.956Z,2.20
2022-09-03T06:33:59.637Z,1.48
2022-09-03T06:37:03.122Z,2.35
2022-09-03T06:40:05.557Z,1.85
2022-09-03T06:43:07.835Z,1.63
2022-09-03T06:46:15.655Z,1.55
2022-09-03T06:49:18.235Z,2.58
2022-09-03T06:52:20.355Z,2.03
2022-09-03T06:55:23.015Z,1.65
2022-09-03T06:58:29.165Z,1.52
2022-09-03T07:01:33.394Z,1.70
2022-09-03T07:04:35.631Z,2.05
2022-09-03T07:07:38.908Z,2.63
2022-09-03T07:10:41.099Z,1.90
2022-09-03T07:13:45.519Z,1.60
2022-09-03T07:16:49.109Z,1.75
2022-09-03T07:19:51.378Z,1.67
2022-09-03T07:22:57.216Z,2.33
2022-09-03T07:26:01.549Z,1.85
2022-09-03T07:29:05.336Z,2.95
2022-09-03T07:32:07.390Z,2.33
2022-09-03T07:35:09.629Z,2.47
2022-09-03T07:38:11.881Z,1.88
2022-09-03T07:41:17.627Z,2.40
2022-09-03T07:44:31.306Z,2.33
2022-09-03T07:47:34.709Z,2.05
2022-09-03T07:50:39.430Z,1.92
2022-09-03T07:53:41.566Z,2.30
2022-09-03T07:56:43.709Z,1.60
2022-09-03T07:59:45.945Z,1.77
2022-09-03T08:02:47.995Z,1.80
2022-09-03T08:05:50.079Z,2.20
2022-09-03T08:09:03.737Z,1.83
2022-09-03T08:12:07.924Z,2.45
2022-09-03T08:15:10.317Z,2.53
2022-09-03T08:18:12.624Z,2.30
2022-09-03T08:21:17.527Z,2.15
2022-09-03T08:24:21.953Z,1.50
2022-09-03T08:27:25.567Z,1.80
2022-09-03T08:30:28.334Z,1.55
2022-09-03T08:33:39.433Z,1.70
2022-09-03T08:36:41.649Z,1.70
2022-09-03T08:39:44.105Z,1.92
2022-09-03T08:43:12.435Z,2.17
2022-09-03T08:46:14.773Z,2.03
2022-09-03T08:49:31.625Z,1.80
2022-09-03T08:52:49.300Z,2.28
2022-09-03T08:55:53.958Z,1.67
2022-09-03T08:58:57.004Z,1.88
2022-09-03T09:02:07.222Z,1.95
2022-09-03T09:05:16.449Z,1.75
2022-09-03T09:08:50.362Z,2.13
2022-09-03T09:12:14.292Z,2.08
2022-09-03T09:15:40.061Z,2.10
2022-09-03T09:18:48.140Z,2.17
2022-09-03T09:21:59.290Z,1.98
2022-09-03T09:25:09.153Z,2.28
2022-09-03T09:28:20.272Z,1.88
2022-09-03T09:31:22.597Z,2.00
2022-09-03T09:34:25.068Z,1.80
2022-09-03T09:37:27.634Z,1.83
2022-09-03T09:40:36.238Z,1.77
2022-09-03T09:43:39.365Z,1.48
2022-09-03T09:46:43.108Z,2.33
2022-09-03T09:49:59.865Z,2.08
2022-09-03T09:53:14.541Z,2.00
2022-09-03T09:56:24.682Z,2.08
2022-09-03T09:59:26.801Z,1.52
2022-09-03T10:02:29.209Z,1.98
2022-09-03T10:05:36.983Z,2.05
2022-09-03T10:08:39.023Z,2.08
2022-09-03T10:11:45.579Z,2.13
2022-09-03T10:14:55.993Z,2.53
2022-09-03T10:18:15.343Z,2.92
2022-09-03T10:21:41.435Z,2.08
2022-09-03T10:24:59.626Z,1.95
2022-09-03T10:28:02.309Z,2.47
2022-09-03T10:31:25.944Z,2.20
2022-09-03T10:34:37.326Z,1.92
2022-09-03T10:37:45.230Z,1.90
2022-09-03T10:41:01.034Z,2.38
2022-09-03T10:44:28.441Z,2.03
2022-09-03T10:47:44.512Z,2.28
2022-09-03T10:50:53.198Z,2.10
2022-09-03T10:54:13.808Z,2.45
2022-09-03T10:57:49.698Z,1.98
2022-09-03T11:00:58.342Z,2.33
2022-09-03T11:04:16.837Z,2.40
2022-09-03T11:07:24.241Z,1.77
2022-09-03T11:10:31.148Z,2.80
2022-09-03T11:14:01.332Z,2.35
2022-09-03T11:17:26.582Z,2.13
2022-09-03T11:20:30.463Z,2.22
2022-09-03T11:23:37.526Z,2.00
2022-09-03T11:26:43.747Z,1.83
2022-09-03T11:30:04.116Z,1.60
2022-09-03T11:33:11.517Z,2.00
2022-09-03T11:36:13.929Z,2.38
2022-09-03T11:39:38.993Z,2.00
2022-09-03T11:42:43.009Z,2.13
2022-09-03T11:45:45.190Z,1.83
2022-09-03T11:48:55.665Z,2.47
2022-09-03T11:52:10.106Z,1.98
2022-09-03T11:55:12.336Z,1.67
2022-09-03T11:58:27.504Z,1.95
2022-09-03T12:01:31.297Z,1.48
2022-09-03T12:05:16.168Z,1.58
2022-09-03T12:08:36.209Z,1.70
2022-09-03T12:12:13.437Z,1.90
2022-09-03T12:15:23.955Z,1.73
2022-09-03T12:18:31.346Z,1.83
2022-09-03T12:21:40.286Z,1.13
2022-09-03T12:24:44.178Z,1.80
2022-09-03T12:27:46.952Z,2.47
2022-09-03T12:30:54.378Z,1.92
2022-09-03T12:33:59.782Z,2.50
2022-09-03T12:37:01.947Z,1.65
2022-09-03T12:40:05.864Z,1.88
2022-09-03T12:46:40.281Z,1.92
2022-09-03T12:49:47.308Z,1.77
2022-09-03T12:52:54.065Z,1.80
2022-09-03T12:55:59.274Z,1.98
2022-09-03T12:59:11.089Z,2.47
2022-09-03T13:02:20.746Z,2.00
2022-09-03T13:05:36.316Z,2.03
2022-09-03T13:09:03.481Z,2.00
2022-09-03T13:12:06.265Z,1.73
2022-09-03T13:15:10.954Z,1.80
2022-09-03T13:18:33.107Z,1.95
2022-09-03T13:21:47.406Z,1.90
2022-09-03T13:25:12.753Z,1.70
2022-09-03T13:28:52.833Z,1.83
2022-09-03T13:32:26.347Z,1.60
2022-09-03T13:35:52.048Z,1.40
2022-09-03T13:39:06.447Z,1.63
2022-09-03T13:42:18.492Z,2.58
2022-09-03T13:45:35.978Z,1.60
2022-09-03T13:49:02.368Z,1.75
2022-09-03T13:52:09.380Z,1.65
2022-09-03T13:55:23.349Z,2.20
2022-09-03T13:58:31.629Z,2.05
2022-09-03T14:02:05.053Z,2.17
2022-09-03T14:05:13.152Z,2.00
2022-09-03T14:08:34.040Z,2.30
2022-09-03T14:11:57.837Z,1.15
2022-09-03T14:15:05.784Z,1.75
2022-09-03T14:18:15.754Z,1.90
2022-09-03T14:21:36.126Z,1.80
2022-09-03T14:24:56.004Z,1.63
2022-09-03T14:28:20.492Z,2.00
2022-09-03T14:31:38.044Z,1.50
2022-09-03T14:35:17.510Z,2.15
2022-09-03T14:38:35.053Z,1.38
2022-09-03T14:41:50.728Z,2.60
2022-09-03T14:44:59.897Z,1.33
2022-09-03T14:48:23.561Z,2.22
2022-09-03T14:51:53.372Z,3.03
2022-09-03T14:55:14.257Z,2.13
2022-09-03T14:58:16.263Z,2.10
2022-09-03T15:01:29.575Z,2.22
2022-09-03T15:05:14.914Z,1.33
2022-09-03T15:09:04.399Z,2.60
2022-09-03T15:12:37.587Z,2.08
2022-09-03T15:15:42.856Z,1.70
2022-09-03T15:19:23.571Z,2.42
2022-09-03T15:22:28.558Z,1.95
2022-09-03T15:25:59.624Z,1.73
2022-09-03T15:29:15.846Z,2.15
2022-09-03T15:32:37.097Z,2.00
2022-09-03T15:35:45.599Z,2.15
2022-09-03T15:38:58.575Z,1.70
2022-09-03T15:42:06.642Z,1.88
2022-09-03T15:45:32.822Z,2.30
2022-09-03T15:48:45.651Z,2.25
2022-09-03T15:52:29.216Z,2.33
2022-09-03T15:55:43.556Z,2.50
2022-09-03T15:59:10.589Z,2.60
2022-09-03T16:02:24.674Z,2.20
2022-09-03T16:05:37.121Z,2.22
2022-09-03T16:08:53.994Z,2.20
2022-09-03T16:12:05.106Z,2.35
2022-09-03T16:15:14.170Z,2.33
2022-09-03T16:18:40.127Z,2.05
2022-09-03T16:22:17.471Z,2.13
2022-09-03T16:25:23.317Z,2.53
2022-09-03T16:28:42.378Z,2.40
2022-09-03T16:35:13.714Z,3.08
2022-09-03T16:38:18.897Z,2.28
2022-09-03T16:41:48.538Z,2.22
2022-09-03T16:49:02.114Z,2.40
2022-09-03T16:52:11.036Z,2.45
2022-09-03T16:55:34.996Z,3.03
2022-09-03T16:58:40.798Z,1.95
2022-09-03T17:01:59.106Z,1.95
2022-09-03T17:05:26.591Z,2.15
2022-09-03T17:08:41.692Z,2.10
2022-09-03T17:11:55.565Z,1.88
2022-09-03T17:15:13.358Z,2.20
2022-09-03T17:18:45.827Z,2.00
2022-09-03T17:22:00.165Z,2.17
2022-09-03T17:25:06.078Z,1.73
2022-09-03T17:28:10.887Z,1.80
2022-09-03T17:31:31.680Z,2.10
2022-09-03T17:34:41.266Z,2.28
2022-09-03T17:37:46.105Z,2.13
2022-09-03T17:40:58.634Z,2.38
2022-09-03T17:44:15.031Z,2.05
2022-09-03T17:47:39.079Z,2.17
2022-09-03T17:50:57.264Z,2.30
2022-09-03T17:54:23.409Z,2.10
2022-09-03T17:57:38.606Z,2.40
2022-09-03T18:01:21.669Z,2.33
2022-09-03T18:04:42.161Z,1.80
2022-09-03T18:07:55.041Z,2.65
2022-09-03T18:11:13.600Z,2.85
2022-09-03T18:14:24.617Z,2.55
2022-09-03T18:17:46.641Z,2.47
2022-09-03T18:21:24.450Z,2.33
2022-09-03T18:24:54.057Z,2.53
2022-09-03T18:28:20.857Z,2.70
2022-09-03T18:31:43.856Z,2.65
2022-09-03T18:35:05.855Z,2.55
2022-09-03T18:38:26.878Z,2.25
2022-09-03T18:42:07.000Z,2.40
2022-09-03T18:49:48.527Z,2.03
2022-09-03T18:53:23.014Z,2.53
2022-09-03T18:56:51.168Z,2.35
2022-09-03T19:00:28.584Z,2.78
2022-09-03T19:04:02.146Z,2.72
2022-09-03T19:07:45.051Z,2.05
2022-09-03T19:11:09.467Z,2.60
2022-09-03T19:15:09.058Z,2.83
2022-09-03T19:18:55.779Z,2.40
2022-09-03T19:22:26.023Z,2.13
2022-09-03T19:25:48.516Z,2.25
2022-09-03T19:29:18.543Z,2.05
2022-09-03T19:32:49.102Z,2.53
2022-09-03T19:36:17.973Z,2.38
2022-09-03T19:40:09.489Z,2.33
2022-09-03T19:43:57.622Z,2.55
2022-09-03T19:47:20.952Z,2.10
2022-09-03T19:50:47.874Z,2.08
2022-09-03T19:54:09.144Z,2.53
2022-09-03T19:57:33.513Z,2.72
2022-09-03T20:00:54.678Z,2.72
2022-09-03T20:04:19.141Z,2.33
2022-09-03T20:07:40.588Z,2.50
2022-09-03T20:10:44.453Z,2.72
2022-09-03T20:14:05.036Z,2.08
2022-09-03T20:17:22.636Z,2.65
2022-09-03T20:20:38.399Z,2.90
2022-09-03T20:23:49.300Z,3.03
2022-09-03T20:27:49.311Z,3.83
2022-09-03T20:30:58.972Z,2.45
2022-09-03T20:34:30.035Z,2.72
2022-09-03T20:37:56.464Z,2.97
2022-09-03T20:41:10.850Z,2.90
2022-09-03T20:44:31.407Z,3.33
2022-09-03T20:48:05.581Z,4.07
2022-09-03T20:51:17.728Z,3.45
2022-09-03T20:54:32.800Z,3.55
2022-09-03T20:57:52.845Z,4.75
2022-09-03T21:01:05.545Z,4.22
2022-09-03T21:04:39.790Z,4.32
2022-09-03T21:08:07.709Z,5.38
2022-09-03T21:11:19.147Z,6.15
2022-09-03T21:14:24.002Z,7.22
2022-09-03T21:17:51.779Z,6.53
2022-09-03T21:21:27.691Z,7.78
2022-09-03T21:24:34.295Z,8.75
2022-09-03T21:27:44.165Z,7.65
2022-09-03T21:30:53.009Z,7.60
2022-09-03T21:34:05.378Z,7.72
2022-09-03T21:37:11.942Z,7.13
2022-09-03T21:40:19.892Z,7.68
2022-09-03T21:43:42.972Z,6.32
2022-09-03T21:46:58.325Z,7.90
2022-09-03T21:50:16.796Z,6.60
2022-09-03T21:53:26.440Z,5.18
2022-09-03T21:56:50.732Z,5.32
2022-09-03T22:00:08.471Z,4.10
2022-09-03T22:03:16.532Z,3.95
2022-09-03T22:06:28.675Z,4.28
2022-09-03T22:09:44.147Z,3.97
2022-09-03T22:13:02.304Z,3.35
2022-09-03T22:16:32.694Z,2.50
2022-09-03T22:19:37.786Z,2.88
2022-09-03T22:22:56.727Z,2.70
2022-09-03T22:26:07.525Z,3.13
2022-09-03T22:29:20.101Z,2.85
2022-09-03T22:32:36.739Z,2.80
2022-09-03T22:35:54.807Z,2.67
2022-09-03T22:39:31.119Z,2.97
2022-09-03T22:43:05.291Z,3.67
2022-09-03T22:46:12.982Z,2.70
2022-09-03T22:49:20.994Z,3.00
2022-09-03T22:52:39.955Z,3.00
2022-09-03T22:59:07.358Z,2.65
2022-09-03T23:02:29.438Z,2.13
2022-09-03T23:06:03.509Z,3.05
2022-09-03T23:09:09.125Z,2.90
2022-09-03T23:12:20.353Z,2.53
2022-09-03T23:15:30.134Z,2.83
2022-09-03T23:18:36.309Z,2.47
2022-09-03T23:21:57.077Z,2.92
2022-09-03T23:25:05.678Z,2.65
2022-09-03T23:28:32.787Z,2.45
2022-09-03T23:31:35.184Z,2.40
2022-09-03T23:34:40.805Z,2.63
2022-09-03T23:38:04.339Z,2.30
2022-09-03T23:41:25.822Z,2.13
2022-09-03T23:44:46.679Z,1.90
2022-09-03T23:48:00.326Z,2.25
2022-09-03T23:51:35.081Z,2.67
2022-09-03T23:55:07.919Z,2.75
2022-09-03T23:58:15.588Z,2.78
